sensor_id;sensor_type;location;lat;lon;timestamp;pressure;altitude;pressure_sealevel;temperature;humidity
74163;BME280;62515;52.758;5.076;2023-05-29T00:01:41;102668.84;;;10.38;100.00
74163;BME280;62515;52.758;5.076;2023-05-29T00:04:08;102664.47;;;10.37;100.00
74163;BME280;62515;52.758;5.076;2023-05-29T00:06:36;102664.34;;;10.40;100.00
74163;BME280;62515;52.758;5.076;2023-05-29T00:09:03;102667.53;;;10.48;100.00
74163;BME280;62515;52.758;5.076;2023-05-29T00:11:30;102673.66;;;10.50;100.00
74163;BME280;62515;52.758;5.076;2023-05-29T00:13:57;102668.41;;;10.48;100.00
74163;BME280;62515;52.758;5.076;2023-05-29T00:16:23;102672.94;;;10.46;100.00
74163;BME280;62515;52.758;5.076;2023-05-29T00:18:50;102681.72;;;10.48;100.00
74163;BME280;62515;52.758;5.076;2023-05-29T00:21:17;102684.06;;;10.56;100.00
74163;BME280;62515;52.758;5.076;2023-05-29T00:23:45;102677.88;;;10.56;100.00
74163;BME280;62515;52.758;5.076;2023-05-29T00:26:12;102662.41;;;10.43;100.00
74163;BME280;62515;52.758;5.076;2023-05-29T00:28:41;102667.47;;;10.49;100.00
74163;BME280;62515;52.758;5.076;2023-05-29T00:31:08;102660.84;;;10.38;100.00
74163;BME280;62515;52.758;5.076;2023-05-29T00:33:35;102664.34;;;10.40;100.00
74163;BME280;62515;52.758;5.076;2023-05-29T00:36:01;102673.25;;;10.39;100.00
74163;BME280;62515;52.758;5.076;2023-05-29T00:38:28;102673.91;;;10.44;100.00
74163;BME280;62515;52.758;5.076;2023-05-29T00:40:56;102683.88;;;10.39;100.00
74163;BME280;62515;52.758;5.076;2023-05-29T00:43:23;102670.09;;;10.29;100.00
74163;BME280;62515;52.758;5.076;2023-05-29T00:45:50;102672.69;;;10.31;100.00
74163;BME280;62515;52.758;5.076;2023-05-29T00:48:17;102680.75;;;10.29;100.00
74163;BME280;62515;52.758;5.076;2023-05-29T00:50:44;102680.13;;;10.23;100.00
74163;BME280;62515;52.758;5.076;2023-05-29T00:53:11;102676.56;;;10.24;100.00
74163;BME280;62515;52.758;5.076;2023-05-29T00:55:38;102683.31;;;10.31;100.00
74163;BME280;62515;52.758;5.076;2023-05-29T00:58:06;102675.25;;;10.34;100.00
74163;BME280;62515;52.758;5.076;2023-05-29T01:00:33;102679.09;;;10.27;100.00
74163;BME280;62515;52.758;5.076;2023-05-29T01:03:00;102680.91;;;10.25;100.00
74163;BME280;62515;52.758;5.076;2023-05-29T01:05:29;102686.31;;;10.23;100.00
74163;BME280;62515;52.758;5.076;2023-05-29T01:07:55;102688.38;;;10.17;100.00
74163;BME280;62515;52.758;5.076;2023-05-29T01:10:22;102673.16;;;10.20;100.00
74163;BME280;62515;52.758;5.076;2023-05-29T01:12:52;102688.13;;;10.23;100.00
74163;BME280;62515;52.758;5.076;2023-05-29T01:15:30;102696.69;;;10.08;100.00
74163;BME280;62515;52.758;5.076;2023-05-29T01:18:08;102689.50;;;10.10;100.00
74163;BME280;62515;52.758;5.076;2023-05-29T01:20:40;102689.06;;;9.98;100.00
74163;BME280;62515;52.758;5.076;2023-05-29T01:26:20;102693.16;;;10.07;100.00
74163;BME280;62515;52.758;5.076;2023-05-29T01:28:51;102695.63;;;10.12;100.00
74163;BME280;62515;52.758;5.076;2023-05-29T01:31:23;102696.69;;;10.08;100.00
74163;BME280;62515;52.758;5.076;2023-05-29T01:33:52;102705.34;;;10.13;100.00
74163;BME280;62515;52.758;5.076;2023-05-29T01:36:19;102715.09;;;10.12;100.00
74163;BME280;62515;52.758;5.076;2023-05-29T01:38:49;102709.13;;;10.07;100.00
74163;BME280;62515;52.758;5.076;2023-05-29T01:41:18;102710.78;;;10.10;100.00
74163;BME280;62515;52.758;5.076;2023-05-29T01:43:46;102707.38;;;10.06;100.00
74163;BME280;62515;52.758;5.076;2023-05-29T01:46:15;102710.31;;;9.98;100.00
74163;BME280;62515;52.758;5.076;2023-05-29T01:48:43;102709.28;;;10.03;100.00
74163;BME280;62515;52.758;5.076;2023-05-29T01:51:11;102711.19;;;9.99;100.00
74163;BME280;62515;52.758;5.076;2023-05-29T01:53:38;102702.34;;;9.98;100.00
74163;BME280;62515;52.758;5.076;2023-05-29T01:56:06;102709.28;;;10.03;100.00
74163;BME280;62515;52.758;5.076;2023-05-29T01:58:34;102712.06;;;9.99;100.00
74163;BME280;62515;52.758;5.076;2023-05-29T02:01:02;102703.84;;;10.06;100.00
74163;BME280;62515;52.758;5.076;2023-05-29T02:03:30;102708.38;;;10.04;100.00
74163;BME280;62515;52.758;5.076;2023-05-29T02:05:57;102696.47;;;9.90;100.00
74163;BME280;62515;52.758;5.076;2023-05-29T02:08:25;102715.66;;;9.98;100.00
74163;BME280;62515;52.758;5.076;2023-05-29T02:10:52;102718.19;;;10.02;100.00
74163;BME280;62515;52.758;5.076;2023-05-29T02:13:19;102719.31;;;9.96;100.00
74163;BME280;62515;52.758;5.076;2023-05-29T02:15:46;102712.19;;;9.96;100.00
74163;BME280;62515;52.758;5.076;2023-05-29T02:18:14;102701.38;;;10.01;100.00
74163;BME280;62515;52.758;5.076;2023-05-29T02:20:42;102706.00;;;9.96;100.00
74163;BME280;62515;52.758;5.076;2023-05-29T02:23:09;102705.34;;;9.91;100.00
74163;BME280;62515;52.758;5.076;2023-05-29T02:25:36;102711.56;;;9.90;100.00
74163;BME280;62515;52.758;5.076;2023-05-29T02:28:03;102704.94;;;9.78;100.00
74163;BME280;62515;52.758;5.076;2023-05-29T02:30:30;102716.31;;;9.82;100.00
74163;BME280;62515;52.758;5.076;2023-05-29T02:32:57;102716.50;;;9.77;100.00
74163;BME280;62515;52.758;5.076;2023-05-29T02:35:24;102712.38;;;9.92;100.00
74163;BME280;62515;52.758;5.076;2023-05-29T02:37:52;102710.97;;;9.82;100.00
74163;BME280;62515;52.758;5.076;2023-05-29T02:40:20;102721.03;;;9.75;100.00
74163;BME280;62515;52.758;5.076;2023-05-29T02:42:47;102713.84;;;9.77;100.00
74163;BME280;62515;52.758;5.076;2023-05-29T02:45:14;102722.31;;;9.87;100.00
74163;BME280;62515;52.758;5.076;2023-05-29T02:47:40;102715.09;;;9.90;100.00
74163;BME280;62515;52.758;5.076;2023-05-29T02:50:08;102705.47;;;9.88;100.00
74163;BME280;62515;52.758;5.076;2023-05-29T02:52:35;102713.59;;;9.83;100.00
74163;BME280;62515;52.758;5.076;2023-05-29T02:55:04;102703.88;;;9.82;100.00
74163;BME280;62515;52.758;5.076;2023-05-29T02:57:30;102697.75;;;9.80;100.00
74163;BME280;62515;52.758;5.076;2023-05-29T02:59:58;102704.13;;;9.76;100.00
74163;BME280;62515;52.758;5.076;2023-05-29T03:02:24;102709.50;;;9.75;100.00
74163;BME280;62515;52.758;5.076;2023-05-29T03:04:51;102706.97;;;9.72;100.00
74163;BME280;62515;52.758;5.076;2023-05-29T03:07:18;102686.00;;;9.64;100.00
74163;BME280;62515;52.758;5.076;2023-05-29T03:09:45;102707.72;;;9.75;100.00
74163;BME280;62515;52.758;5.076;2023-05-29T03:12:13;102693.06;;;9.65;100.00
74163;BME280;62515;52.758;5.076;2023-05-29T03:14:40;102711.09;;;9.79;100.00
74163;BME280;62515;52.758;5.076;2023-05-29T03:17:10;102718.69;;;9.89;100.00
74163;BME280;62515;52.758;5.076;2023-05-29T03:19:37;102705.38;;;9.89;100.00
74163;BME280;62515;52.758;5.076;2023-05-29T03:22:04;102701.69;;;9.93;100.00
74163;BME280;62515;52.758;5.076;2023-05-29T03:24:34;102701.72;;;9.92;100.00
74163;BME280;62515;52.758;5.076;2023-05-29T03:27:01;102701.06;;;9.87;100.00
74163;BME280;62515;52.758;5.076;2023-05-29T03:29:29;102693.94;;;9.87;100.00
74163;BME280;62515;52.758;5.076;2023-05-29T03:31:56;102702.97;;;9.83;100.00
74163;BME280;62515;52.758;5.076;2023-05-29T03:34:27;102710.03;;;9.84;100.00
74163;BME280;62515;52.758;5.076;2023-05-29T03:36:56;102703.75;;;9.85;100.00
74163;BME280;62515;52.758;5.076;2023-05-29T03:39:24;102712.81;;;9.81;100.00
74163;BME280;62515;52.758;5.076;2023-05-29T03:41:51;102705.63;;;9.83;100.00
74163;BME280;62515;52.758;5.076;2023-05-29T03:44:18;102705.25;;;9.92;100.00
74163;BME280;62515;52.758;5.076;2023-05-29T03:46:47;102700.56;;;9.99;100.00
74163;BME280;62515;52.758;5.076;2023-05-29T03:49:13;102708.50;;;10.01;100.00
74163;BME280;62515;52.758;5.076;2023-05-29T03:51:41;102703.97;;;10.03;100.00
74163;BME280;62515;52.758;5.076;2023-05-29T03:54:08;102699.69;;;9.98;100.00
74163;BME280;62515;52.758;5.076;2023-05-29T03:56:36;102712.94;;;10.00;100.00
74163;BME280;62515;52.758;5.076;2023-05-29T03:59:03;102716.47;;;10.01;100.00
74163;BME280;62515;52.758;5.076;2023-05-29T04:01:31;102714.72;;;9.99;100.00
74163;BME280;62515;52.758;5.076;2023-05-29T04:03:59;102724.13;;;10.08;100.00
74163;BME280;62515;52.758;5.076;2023-05-29T04:06:26;102725.50;;;10.20;100.00
74163;BME280;62515;52.758;5.076;2023-05-29T04:08:53;102724.63;;;10.19;100.00
74163;BME280;62515;52.758;5.076;2023-05-29T04:11:20;102732.44;;;10.24;100.00
74163;BME280;62515;52.758;5.076;2023-05-29T04:13:47;102715.72;;;10.20;100.00
74163;BME280;62515;52.758;5.076;2023-05-29T04:16:14;102726.91;;;10.28;100.00
74163;BME280;62515;52.758;5.076;2023-05-29T04:18:41;102736.44;;;10.34;100.00
74163;BME280;62515;52.758;5.076;2023-05-29T04:21:09;102730.88;;;10.40;100.00
74163;BME280;62515;52.758;5.076;2023-05-29T04:23:36;102739.66;;;10.42;100.00
74163;BME280;62515;52.758;5.076;2023-05-29T04:26:03;102735.13;;;10.44;100.00
74163;BME280;62515;52.758;5.076;2023-05-29T04:28:31;102749.00;;;10.52;100.00
74163;BME280;62515;52.758;5.076;2023-05-29T04:30:57;102746.22;;;10.55;100.00
74163;BME280;62515;52.758;5.076;2023-05-29T04:33:25;102748.88;;;10.55;100.00
74163;BME280;62515;52.758;5.076;2023-05-29T04:35:52;102733.94;;;10.51;100.00
74163;BME280;62515;52.758;5.076;2023-05-29T04:38:20;102749.78;;;10.54;100.00
74163;BME280;62515;52.758;5.076;2023-05-29T04:40:47;102741.53;;;10.60;100.00
74163;BME280;62515;52.758;5.076;2023-05-29T04:43:17;102749.31;;;10.66;100.00
74163;BME280;62515;52.758;5.076;2023-05-29T04:45:57;102734.25;;;10.65;100.00
74163;BME280;62515;52.758;5.076;2023-05-29T04:48:25;102740.38;;;10.67;100.00
74163;BME280;62515;52.758;5.076;2023-05-29T04:50:51;102738.66;;;10.66;100.00
74163;BME280;62515;52.758;5.076;2023-05-29T04:53:20;102741.25;;;10.68;100.00
74163;BME280;62515;52.758;5.076;2023-05-29T04:55:47;102740.50;;;10.64;100.00
74163;BME280;62515;52.758;5.076;2023-05-29T04:58:15;102746.38;;;10.72;100.00
74163;BME280;62515;52.758;5.076;2023-05-29T05:00:41;102749.53;;;10.60;100.00
74163;BME280;62515;52.758;5.076;2023-05-29T05:03:08;102759.97;;;10.66;100.00
74163;BME280;62515;52.758;5.076;2023-05-29T05:05:35;102760.88;;;10.65;100.00
74163;BME280;62515;52.758;5.076;2023-05-29T05:08:02;102757.69;;;10.77;100.00
74163;BME280;62515;52.758;5.076;2023-05-29T05:10:31;102762.50;;;10.89;100.00
74163;BME280;62515;52.758;5.076;2023-05-29T05:12:57;102765.75;;;10.96;100.00
74163;BME280;62515;52.758;5.076;2023-05-29T05:15:27;102768.78;;;10.88;100.00
74163;BME280;62515;52.758;5.076;2023-05-29T05:17:53;102772.19;;;10.92;100.00
74163;BME280;62515;52.758;5.076;2023-05-29T05:20:20;102780.22;;;10.90;100.00
74163;BME280;62515;52.758;5.076;2023-05-29T05:22:54;102766.28;;;10.84;100.00
74163;BME280;62515;52.758;5.076;2023-05-29T05:25:21;102773.09;;;10.91;100.00
74163;BME280;62515;52.758;5.076;2023-05-29T05:27:49;102769.84;;;11.05;100.00
74163;BME280;62515;52.758;5.076;2023-05-29T05:30:17;102770.50;;;11.10;100.00
74163;BME280;62515;52.758;5.076;2023-05-29T05:32:44;102780.44;;;11.06;100.00
74163;BME280;62515;52.758;5.076;2023-05-29T05:35:11;102774.72;;;11.15;100.00
74163;BME280;62515;52.758;5.076;2023-05-29T05:37:38;102777.03;;;11.23;100.00
74163;BME280;62515;52.758;5.076;2023-05-29T05:40:06;102775.25;;;11.23;100.00
74163;BME280;62515;52.758;5.076;2023-05-29T05:42:36;102769.25;;;11.18;100.00
74163;BME280;62515;52.758;5.076;2023-05-29T05:45:10;102769.31;;;11.37;100.00
74163;BME280;62515;52.758;5.076;2023-05-29T05:47:37;102775.28;;;11.62;100.00
74163;BME280;62515;52.758;5.076;2023-05-29T05:50:05;102771.41;;;11.69;100.00
74163;BME280;62515;52.758;5.076;2023-05-29T05:52:31;102768.94;;;11.65;100.00
74163;BME280;62515;52.758;5.076;2023-05-29T05:55:01;102779.00;;;11.58;100.00
74163;BME280;62515;52.758;5.076;2023-05-29T05:57:28;102768.63;;;11.72;100.00
74163;BME280;62515;52.758;5.076;2023-05-29T05:59:55;102772.31;;;12.07;100.00
74163;BME280;62515;52.758;5.076;2023-05-29T06:02:25;102763.69;;;12.02;100.00
74163;BME280;62515;52.758;5.076;2023-05-29T06:04:52;102764.53;;;12.02;100.00
74163;BME280;62515;52.758;5.076;2023-05-29T06:07:21;102764.09;;;12.12;100.00
74163;BME280;62515;52.758;5.076;2023-05-29T06:09:48;102765.53;;;12.19;100.00
74163;BME280;62515;52.758;5.076;2023-05-29T06:12:15;102753.34;;;12.32;100.00
74163;BME280;62515;52.758;5.076;2023-05-29T06:14:51;102764.94;;;12.31;100.00
74163;BME280;62515;52.758;5.076;2023-05-29T06:17:18;102783.69;;;12.29;100.00
74163;BME280;62515;52.758;5.076;2023-05-29T06:19:50;102775.19;;;12.40;100.00
74163;BME280;62515;52.758;5.076;2023-05-29T06:22:18;102784.38;;;12.70;100.00
74163;BME280;62515;52.758;5.076;2023-05-29T06:24:45;102788.50;;;12.58;100.00
74163;BME280;62515;52.758;5.076;2023-05-29T06:27:12;102783.13;;;12.41;100.00
74163;BME280;62515;52.758;5.076;2023-05-29T06:29:39;102789.50;;;12.56;100.00
74163;BME280;62515;52.758;5.076;2023-05-29T06:32:07;102781.34;;;12.59;100.00
74163;BME280;62515;52.758;5.076;2023-05-29T06:34:33;102795.06;;;12.70;100.00
74163;BME280;62515;52.758;5.076;2023-05-29T06:37:02;102782.97;;;12.97;100.00
74163;BME280;62515;52.758;5.076;2023-05-29T06:39:28;102786.91;;;12.90;100.00
74163;BME280;62515;52.758;5.076;2023-05-29T06:41:56;102797.84;;;13.20;100.00
74163;BME280;62515;52.758;5.076;2023-05-29T06:44:22;102796.28;;;13.50;100.00
74163;BME280;62515;52.758;5.076;2023-05-29T06:46:49;102785.91;;;13.27;100.00
74163;BME280;62515;52.758;5.076;2023-05-29T06:49:17;102794.19;;;13.23;100.00
74163;BME280;62515;52.758;5.076;2023-05-29T06:51:44;102794.47;;;13.51;100.00
74163;BME280;62515;52.758;5.076;2023-05-29T06:54:23;102806.56;;;13.58;100.00
74163;BME280;62515;52.758;5.076;2023-05-29T06:56:50;102791.38;;;13.91;100.00
74163;BME280;62515;52.758;5.076;2023-05-29T06:59:36;102793.56;;;14.00;100.00
74163;BME280;62515;52.758;5.076;2023-05-29T07:02:04;102798.63;;;13.89;100.00
74163;BME280;62515;52.758;5.076;2023-05-29T07:04:31;102806.75;;;13.88;100.00
74163;BME280;62515;52.758;5.076;2023-05-29T07:06:58;102810.13;;;13.91;100.00
74163;BME280;62515;52.758;5.076;2023-05-29T07:09:26;102812.03;;;14.05;100.00
74163;BME280;62515;52.758;5.076;2023-05-29T07:11:53;102808.97;;;13.95;100.00
74163;BME280;62515;52.758;5.076;2023-05-29T07:14:19;102806.50;;;14.08;100.00
74163;BME280;62515;52.758;5.076;2023-05-29T07:16:46;102818.16;;;14.40;100.00
74163;BME280;62515;52.758;5.076;2023-05-29T07:19:13;102809.47;;;14.50;100.00
74163;BME280;62515;52.758;5.076;2023-05-29T07:21:48;102811.38;;;14.17;100.00
74163;BME280;62515;52.758;5.076;2023-05-29T07:24:17;102815.31;;;13.94;100.00
74163;BME280;62515;52.758;5.076;2023-05-29T07:26:45;102816.53;;;14.04;100.00
74163;BME280;62515;52.758;5.076;2023-05-29T07:29:13;102821.59;;;14.42;100.00
74163;BME280;62515;52.758;5.076;2023-05-29T07:31:40;102817.69;;;14.47;100.00
74163;BME280;62515;52.758;5.076;2023-05-29T07:34:08;102829.03;;;14.68;100.00
74163;BME280;62515;52.758;5.076;2023-05-29T07:36:34;102824.47;;;14.22;100.00
74163;BME280;62515;52.758;5.076;2023-05-29T07:39:06;102836.53;;;14.61;100.00
74163;BME280;62515;52.758;5.076;2023-05-29T07:41:33;102823.56;;;14.85;100.00
74163;BME280;62515;52.758;5.076;2023-05-29T07:44:03;102822.34;;;14.91;100.00
74163;BME280;62515;52.758;5.076;2023-05-29T07:46:30;102818.66;;;15.67;100.00
74163;BME280;62515;52.758;5.076;2023-05-29T07:49:17;102838.09;;;15.85;100.00
74163;BME280;62515;52.758;5.076;2023-05-29T07:51:44;102839.72;;;15.87;100.00
74163;BME280;62515;52.758;5.076;2023-05-29T07:54:11;102837.09;;;16.42;100.00
74163;BME280;62515;52.758;5.076;2023-05-29T07:56:38;102834.69;;;16.93;100.00
74163;BME280;62515;52.758;5.076;2023-05-29T07:59:07;102848.91;;;15.55;100.00
74163;BME280;62515;52.758;5.076;2023-05-29T08:01:34;102838.59;;;15.91;100.00
74163;BME280;62515;52.758;5.076;2023-05-29T08:04:02;102840.94;;;15.53;100.00
74163;BME280;62515;52.758;5.076;2023-05-29T08:06:31;102835.50;;;15.09;100.00
74163;BME280;62515;52.758;5.076;2023-05-29T08:08:58;102837.97;;;14.83;100.00
74163;BME280;62515;52.758;5.076;2023-05-29T08:11:27;102839.47;;;15.48;100.00
74163;BME280;62515;52.758;5.076;2023-05-29T08:13:54;102834.84;;;15.94;100.00
74163;BME280;62515;52.758;5.076;2023-05-29T08:16:22;102838.28;;;16.24;100.00
74163;BME280;62515;52.758;5.076;2023-05-29T08:18:49;102851.91;;;16.07;100.00
74163;BME280;62515;52.758;5.076;2023-05-29T08:21:16;102852.69;;;15.66;100.00
74163;BME280;62515;52.758;5.076;2023-05-29T08:23:43;102848.84;;;15.85;100.00
74163;BME280;62515;52.758;5.076;2023-05-29T08:26:09;102852.91;;;15.18;100.00
74163;BME280;62515;52.758;5.076;2023-05-29T08:28:36;102842.63;;;16.12;100.00
74163;BME280;62515;52.758;5.076;2023-05-29T08:31:06;102832.38;;;16.46;100.00
74163;BME280;62515;52.758;5.076;2023-05-29T08:33:34;102826.78;;;17.68;100.00
74163;BME280;62515;52.758;5.076;2023-05-29T08:36:01;102829.34;;;18.20;100.00
74163;BME280;62515;52.758;5.076;2023-05-29T08:38:28;102836.28;;;18.36;100.00
74163;BME280;62515;52.758;5.076;2023-05-29T08:40:56;102849.06;;;15.96;100.00
74163;BME280;62515;52.758;5.076;2023-05-29T08:43:24;102844.19;;;14.99;100.00
74163;BME280;62515;52.758;5.076;2023-05-29T08:45:53;102836.44;;;14.47;100.00
74163;BME280;62515;52.758;5.076;2023-05-29T08:48:23;102854.69;;;15.91;100.00
74163;BME280;62515;52.758;5.076;2023-05-29T08:50:53;102859.78;;;16.38;100.00
74163;BME280;62515;52.758;5.076;2023-05-29T08:53:20;102856.25;;;16.79;100.00
74163;BME280;62515;52.758;5.076;2023-05-29T08:55:48;102852.16;;;16.59;100.00
74163;BME280;62515;52.758;5.076;2023-05-29T08:58:15;102850.38;;;16.17;100.00
74163;BME280;62515;52.758;5.076;2023-05-29T09:00:42;102855.06;;;16.13;100.00
74163;BME280;62515;52.758;5.076;2023-05-29T09:03:09;102838.31;;;17.18;100.00
74163;BME280;62515;52.758;5.076;2023-05-29T09:05:38;102842.53;;;16.96;100.00
74163;BME280;62515;52.758;5.076;2023-05-29T09:08:08;102845.84;;;17.13;100.00
74163;BME280;62515;52.758;5.076;2023-05-29T09:10:35;102850.47;;;17.76;100.00
74163;BME280;62515;52.758;5.076;2023-05-29T09:13:04;102853.25;;;18.12;100.00
74163;BME280;62515;52.758;5.076;2023-05-29T09:15:31;102843.69;;;18.57;100.00
74163;BME280;62515;52.758;5.076;2023-05-29T09:17:58;102856.97;;;18.84;100.00
74163;BME280;62515;52.758;5.076;2023-05-29T09:20:25;102866.84;;;16.94;100.00
74163;BME280;62515;52.758;5.076;2023-05-29T09:22:53;102866.72;;;17.10;100.00
74163;BME280;62515;52.758;5.076;2023-05-29T09:25:23;102863.50;;;16.64;100.00
74163;BME280;62515;52.758;5.076;2023-05-29T09:27:51;102866.97;;;16.23;100.00
74163;BME280;62515;52.758;5.076;2023-05-29T09:30:31;102873.47;;;17.03;100.00
74163;BME280;62515;52.758;5.076;2023-05-29T09:32:59;102867.06;;;16.64;100.00
74163;BME280;62515;52.758;5.076;2023-05-29T09:35:26;102855.13;;;17.74;100.00
74163;BME280;62515;52.758;5.076;2023-05-29T09:37:53;102859.66;;;18.48;100.00
74163;BME280;62515;52.758;5.076;2023-05-29T09:40:19;102861.91;;;18.17;100.00
74163;BME280;62515;52.758;5.076;2023-05-29T09:42:47;102859.00;;;18.57;100.00
74163;BME280;62515;52.758;5.076;2023-05-29T09:45:16;102868.31;;;18.27;100.00
74163;BME280;62515;52.758;5.076;2023-05-29T09:47:44;102865.78;;;17.88;100.00
74163;BME280;62515;52.758;5.076;2023-05-29T09:50:18;102855.00;;;18.01;100.00
74163;BME280;62515;52.758;5.076;2023-05-29T09:52:45;102858.81;;;18.35;100.00
74163;BME280;62515;52.758;5.076;2023-05-29T09:55:12;102855.84;;;17.63;100.00
74163;BME280;62515;52.758;5.076;2023-05-29T09:57:39;102856.66;;;18.52;100.00
74163;BME280;62515;52.758;5.076;2023-05-29T10:00:10;102860.34;;;18.39;100.00
74163;BME280;62515;52.758;5.076;2023-05-29T10:02:37;102864.84;;;18.38;100.00
74163;BME280;62515;52.758;5.076;2023-05-29T10:05:04;102867.28;;;17.80;100.00
74163;BME280;62515;52.758;5.076;2023-05-29T10:07:35;102865.31;;;16.63;100.00
74163;BME280;62515;52.758;5.076;2023-05-29T10:10:04;102858.97;;;17.18;100.00
74163;BME280;62515;52.758;5.076;2023-05-29T10:12:32;102837.25;;;17.34;100.00
74163;BME280;62515;52.758;5.076;2023-05-29T10:15:02;102855.19;;;17.60;100.00
74163;BME280;62515;52.758;5.076;2023-05-29T10:17:33;102857.75;;;17.49;100.00
74163;BME280;62515;52.758;5.076;2023-05-29T10:20:04;102846.88;;;17.11;100.00
74163;BME280;62515;52.758;5.076;2023-05-29T10:22:31;102863.19;;;16.54;100.00
74163;BME280;62515;52.758;5.076;2023-05-29T10:24:59;102844.91;;;17.40;100.00
74163;BME280;62515;52.758;5.076;2023-05-29T10:27:26;102846.38;;;17.83;100.00
74163;BME280;62515;52.758;5.076;2023-05-29T10:29:58;102849.16;;;17.69;100.00
74163;BME280;62515;52.758;5.076;2023-05-29T10:32:31;102863.53;;;18.69;100.00
74163;BME280;62515;52.758;5.076;2023-05-29T10:35:07;102854.72;;;17.41;100.00
74163;BME280;62515;52.758;5.076;2023-05-29T10:37:40;102853.69;;;18.06;100.00
74163;BME280;62515;52.758;5.076;2023-05-29T10:40:13;102856.34;;;18.32;100.00
74163;BME280;62515;52.758;5.076;2023-05-29T10:42:43;102859.63;;;17.86;100.00
74163;BME280;62515;52.758;5.076;2023-05-29T10:45:47;102858.78;;;17.73;100.00
74163;BME280;62515;52.758;5.076;2023-05-29T10:48:39;102878.28;;;16.00;100.00
74163;BME280;62515;52.758;5.076;2023-05-29T10:51:08;102871.47;;;15.66;100.00
74163;BME280;62515;52.758;5.076;2023-05-29T10:53:35;102868.41;;;15.73;100.00
74163;BME280;62515;52.758;5.076;2023-05-29T10:56:02;102868.47;;;15.57;100.00
74163;BME280;62515;52.758;5.076;2023-05-29T10:58:30;102861.97;;;15.75;100.00
74163;BME280;62515;52.758;5.076;2023-05-29T11:00:56;102871.41;;;16.25;100.00
74163;BME280;62515;52.758;5.076;2023-05-29T11:03:25;102860.66;;;16.10;100.00
74163;BME280;62515;52.758;5.076;2023-05-29T11:05:56;102856.41;;;16.35;100.00
74163;BME280;62515;52.758;5.076;2023-05-29T11:08:32;102856.91;;;16.82;100.00
74163;BME280;62515;52.758;5.076;2023-05-29T11:10:59;102839.03;;;17.08;100.00
74163;BME280;62515;52.758;5.076;2023-05-29T11:13:30;102854.06;;;16.71;100.00
74163;BME280;62515;52.758;5.076;2023-05-29T11:16:19;102860.88;;;17.03;100.00
74163;BME280;62515;52.758;5.076;2023-05-29T11:18:47;102857.31;;;16.76;100.00
74163;BME280;62515;52.758;5.076;2023-05-29T11:21:33;102865.63;;;16.16;100.00
74163;BME280;62515;52.758;5.076;2023-05-29T11:24:03;102876.88;;;16.78;100.00
74163;BME280;62515;52.758;5.076;2023-05-29T11:26:35;102875.84;;;16.52;100.00
74163;BME280;62515;52.758;5.076;2023-05-29T11:29:04;102865.34;;;16.90;100.00
74163;BME280;62515;52.758;5.076;2023-05-29T11:31:32;102878.44;;;17.09;100.00
74163;BME280;62515;52.758;5.076;2023-05-29T11:33:59;102868.34;;;17.25;100.00
74163;BME280;62515;52.758;5.076;2023-05-29T11:36:27;102875.03;;;17.19;100.00
74163;BME280;62515;52.758;5.076;2023-05-29T11:38:53;102885.50;;;17.37;100.00
74163;BME280;62515;52.758;5.076;2023-05-29T11:41:21;102881.78;;;17.12;100.00
74163;BME280;62515;52.758;5.076;2023-05-29T11:44:06;102884.50;;;16.98;100.00
74163;BME280;62515;52.758;5.076;2023-05-29T11:46:33;102859.94;;;17.56;100.00
74163;BME280;62515;52.758;5.076;2023-05-29T11:49:00;102877.25;;;17.52;100.00
74163;BME280;62515;52.758;5.076;2023-05-29T11:51:27;102885.84;;;17.05;100.00
74163;BME280;62515;52.758;5.076;2023-05-29T11:53:54;102897.00;;;16.99;100.00
74163;BME280;62515;52.758;5.076;2023-05-29T11:56:22;102870.00;;;17.53;100.00
74163;BME280;62515;52.758;5.076;2023-05-29T11:58:49;102868.94;;;17.03;100.00
74163;BME280;62515;52.758;5.076;2023-05-29T12:01:16;102880.00;;;17.65;100.00
74163;BME280;62515;52.758;5.076;2023-05-29T12:03:43;102883.47;;;17.53;100.00
74163;BME280;62515;52.758;5.076;2023-05-29T12:06:10;102878.63;;;17.45;100.00
74163;BME280;62515;52.758;5.076;2023-05-29T12:08:37;102871.28;;;17.87;100.00
74163;BME280;62515;52.758;5.076;2023-05-29T12:11:04;102870.44;;;19.31;100.00
74163;BME280;62515;52.758;5.076;2023-05-29T12:13:33;102862.22;;;18.98;100.00
74163;BME280;62515;52.758;5.076;2023-05-29T12:16:01;102864.84;;;18.51;100.00
74163;BME280;62515;52.758;5.076;2023-05-29T12:18:29;102868.66;;;18.23;100.00
74163;BME280;62515;52.758;5.076;2023-05-29T12:20:57;102861.91;;;18.17;100.00
74163;BME280;62515;52.758;5.076;2023-05-29T12:23:24;102849.13;;;19.40;100.00
74163;BME280;62515;52.758;5.076;2023-05-29T12:25:51;102867.28;;;17.92;100.00
74163;BME280;62515;52.758;5.076;2023-05-29T12:28:18;102859.28;;;18.16;100.00
74163;BME280;62515;52.758;5.076;2023-05-29T12:30:48;102864.69;;;18.16;100.00
74163;BME280;62515;52.758;5.076;2023-05-29T12:33:25;102851.28;;;17.51;100.00
74163;BME280;62515;52.758;5.076;2023-05-29T12:35:52;102857.97;;;16.80;100.00
74163;BME280;62515;52.758;5.076;2023-05-29T12:38:19;102862.03;;;16.99;100.00
74163;BME280;62515;52.758;5.076;2023-05-29T12:40:48;102858.13;;;17.82;100.00
74163;BME280;62515;52.758;5.076;2023-05-29T12:43:16;102853.75;;;18.55;100.00
74163;BME280;62515;52.758;5.076;2023-05-29T12:45:43;102851.47;;;18.62;100.00
74163;BME280;62515;52.758;5.076;2023-05-29T12:48:11;102855.47;;;19.27;100.00
74163;BME280;62515;52.758;5.076;2023-05-29T12:50:38;102862.75;;;19.73;100.00